Time;durP1;ratioP1;P1;durP2;ratioP2;P2;SDS_P1;SDS_P2;PMS_P1;PMS_P2;Temp;Humidity;BMP_temperature;BMP_pressure;BME280_temperature;BME280_humidity;BME280_pressure;Samples;Min_cycle;Max_cycle;Signal;HPM_P1;HPM_P2
2022/04/25 00:01:04;;;;;;;18.08;9.55;;;;;;;10.08;64.90;101163.94;5048770;27;20655;-60
2022/04/25 00:03:30;;;;;;;17.52;9.50;;;;;;;10.05;65.35;101156.97;5058306;28;20051;-61
2022/04/25 00:05:56;;;;;;;17.05;9.52;;;;;;;10.03;65.80;101153.44;5050864;28;20126;-61
2022/04/25 00:08:21;;;;;;;19.80;9.50;;;;;;;10.10;65.59;101152.72;5038886;27;20059;-60
2022/04/25 00:10:46;;;;;;;21.23;9.68;;;;;;;9.96;65.86;101153.28;5050505;27;20044;-59
2022/04/25 00:13:14;;;;;;;14.95;9.35;;;;;;;10.00;65.81;101139.47;5043341;28;20055;-60
2022/04/25 00:15:42;;;;;;;15.95;9.63;;;;;;;9.92;66.00;101147.13;5054787;27;20736;-59
2022/04/25 00:18:08;;;;;;;17.48;9.90;;;;;;;9.92;65.92;101151.47;5051183;28;20441;-60
2022/04/25 00:20:34;;;;;;;15.23;9.38;;;;;;;9.87;65.80;101147.91;5045027;27;20056;-60
2022/04/25 00:23:06;;;;;;;15.60;9.18;;;;;;;10.05;65.52;101148.25;5052202;28;20045;-60
2022/04/25 00:25:33;;;;;;;19.48;9.40;;;;;;;10.00;65.83;101152.50;5050490;28;20088;-59
2022/04/25 00:27:59;;;;;;;17.73;9.35;;;;;;;9.96;65.85;101154.16;5054044;28;20048;-60
2022/04/25 00:30:25;;;;;;;17.40;9.38;;;;;;;10.03;65.22;101156.03;5051993;27;20047;-59
2022/04/25 00:32:51;;;;;;;17.65;10.05;;;;;;;9.87;65.70;101151.38;5048345;28;20166;-60
2022/04/25 00:35:17;;;;;;;17.17;9.65;;;;;;;9.85;65.71;101149.56;5055932;28;20151;-59
2022/04/25 00:37:42;;;;;;;17.88;10.32;;;;;;;9.84;65.85;101148.69;5047373;28;20051;-59
2022/04/25 00:40:08;;;;;;;18.40;9.73;;;;;;;9.87;65.30;101140.97;5046062;27;20052;-61
2022/04/25 00:42:34;;;;;;;19.45;9.43;;;;;;;9.80;65.88;101152.09;5046521;27;20267;-60
2022/04/25 00:45:00;;;;;;;18.17;9.80;;;;;;;9.78;65.84;101146.84;5058028;28;20515;-60
2022/04/25 00:47:26;;;;;;;18.73;10.00;;;;;;;9.80;65.92;101148.59;5051518;27;20086;-59
2022/04/25 00:49:52;;;;;;;19.27;10.20;;;;;;;9.77;66.27;101149.41;5043717;28;20263;-62
2022/04/25 00:52:17;;;;;;;17.98;9.85;;;;;;;9.76;65.72;101148.53;5041927;27;20044;-62
2022/04/25 00:54:43;;;;;;;19.60;10.00;;;;;;;9.75;65.70;101148.53;5044162;27;20096;-60
2022/04/25 00:57:09;;;;;;;16.20;9.75;;;;;;;9.76;66.13;101148.53;5052034;28;20035;-59
2022/04/25 00:59:35;;;;;;;21.85;10.68;;;;;;;9.66;66.06;101146.59;5050961;28;20488;-59
2022/04/25 01:02:00;;;;;;;17.40;9.95;;;;;;;9.64;66.39;101147.38;5053442;27;20102;-59
2022/04/25 01:04:26;;;;;;;21.42;10.13;;;;;;;9.62;66.28;101144.78;5041236;28;20139;-60
2022/04/25 01:06:51;;;;;;;18.48;10.45;;;;;;;9.60;66.19;101143.84;5048482;28;20067;-60
2022/04/25 01:09:17;;;;;;;16.75;9.95;;;;;;;9.61;66.38;101144.72;5038512;27;20450;-60
2022/04/25 01:11:42;;;;;;;16.75;10.55;;;;;;;9.57;66.35;101143.81;5058691;27;20128;-59
2022/04/25 01:14:15;;;;;;;17.73;9.50;;;;;;;9.49;66.50;101132.34;5044532;28;20055;-60
2022/04/25 01:16:41;;;;;;;19.27;10.63;;;;;;;9.52;66.32;101134.09;5033107;27;20043;-60
2022/04/25 01:19:07;;;;;;;19.20;10.10;;;;;;;9.51;66.43;101145.38;5051723;27;20040;-61
2022/04/25 01:21:40;;;;;;;17.30;10.30;;;;;;;9.48;66.32;101137.50;5047595;27;20037;-59
2022/04/25 01:29:36;;;;;;;16.25;10.18;;;;;;;9.41;66.82;101136.47;5054152;28;20055;-60
2022/04/25 01:32:01;;;;;;;15.98;9.77;;;;;;;9.46;66.28;101129.66;5049611;28;20490;-59
2022/04/25 01:34:27;;;;;;;20.50;10.80;;;;;;;9.43;66.49;101128.72;5039591;27;20098;-59
2022/04/25 01:36:52;;;;;;;20.30;10.77;;;;;;;9.43;66.39;101123.50;5049933;28;20032;-60
2022/04/25 01:39:17;;;;;;;21.15;10.13;;;;;;;9.41;66.10;101126.06;5045636;27;20051;-61
2022/04/25 01:41:44;;;;;;;21.15;10.43;;;;;;;9.42;65.99;101130.44;5050198;27;20230;-60
2022/04/25 01:44:10;;;;;;;18.85;10.40;;;;;;;9.40;66.16;101126.91;5050911;28;20051;-60
2022/04/25 01:46:39;;;;;;;15.75;9.77;;;;;;;9.40;65.80;101128.63;5043647;27;21146;-59
2022/04/25 01:49:04;;;;;;;17.10;10.02;;;;;;;9.31;66.05;101119.81;5047129;28;20131;-60
2022/04/25 01:51:41;;;;;;;20.48;10.35;;;;;;;9.30;66.09;101120.63;5043911;28;20050;-59
2022/04/25 01:54:06;;;;;;;16.48;9.95;;;;;;;9.33;66.11;101125.06;5048432;28;20417;-59
2022/04/25 01:56:32;;;;;;;18.83;9.95;;;;;;;9.33;65.90;101125.06;5041920;28;20067;-60
2022/04/25 01:58:57;;;;;;;15.82;9.82;;;;;;;9.44;65.33;101127.88;5050216;27;20083;-60
2022/04/25 02:01:23;;;;;;;16.58;10.02;;;;;;;9.45;65.31;101120.13;5049097;28;20415;-61
2022/04/25 02:03:48;;;;;;;19.58;10.07;;;;;;;9.44;64.83;101118.34;5049960;27;20078;-60
2022/04/25 02:06:14;;;;;;;19.10;9.45;;;;;;;9.51;64.90;101120.25;5039125;28;20074;-59
2022/04/25 02:08:39;;;;;;;17.80;9.45;;;;;;;9.53;64.74;101117.66;5034597;27;20775;-60
2022/04/25 02:11:20;;;;;;;17.48;9.68;;;;;;;9.66;64.39;101125.75;5045525;28;20259;-59
2022/04/25 02:13:46;;;;;;;15.68;9.48;;;;;;;9.62;64.68;101130.88;5037965;27;20156;-59
2022/04/25 02:16:12;;;;;;;18.15;9.52;;;;;;;9.70;64.88;101127.56;5044118;28;20032;-59
2022/04/25 02:18:41;;;;;;;17.75;10.15;;;;;;;9.86;64.41;101128.78;5044396;27;20040;-59
2022/04/25 02:21:06;;;;;;;17.10;9.20;;;;;;;9.75;64.70;101125.09;5050470;27;20055;-59
2022/04/25 02:23:32;;;;;;;15.88;9.35;;;;;;;9.90;64.90;101121.91;5052642;28;20044;-60
2022/04/25 02:25:57;;;;;;;16.52;8.95;;;;;;;10.04;64.39;101116.13;5046486;28;20048;-60
2022/04/25 02:28:23;;;;;;;16.48;9.50;;;;;;;10.08;64.75;101119.66;5046520;27;20514;-60
2022/04/25 02:30:51;;;;;;;17.08;9.40;;;;;;;10.26;64.29;101122.63;5045798;28;20959;-60
2022/04/25 02:33:17;;;;;;;16.33;9.32;;;;;;;10.27;64.20;101119.19;5051596;27;20044;-59
2022/04/25 02:35:42;;;;;;;19.65;9.32;;;;;;;10.21;64.26;101119.06;5058481;28;20897;-61
2022/04/25 02:38:08;;;;;;;20.20;9.50;;;;;;;10.37;64.39;101120.25;5048465;28;20055;-59
2022/04/25 02:40:33;;;;;;;22.40;9.27;;;;;;;10.38;64.00;101120.25;5044347;27;20052;-59
2022/04/25 02:42:58;;;;;;;16.98;9.20;;;;;;;10.47;63.81;101119.56;5051028;28;20040;-58
2022/04/25 02:45:24;;;;;;;19.63;9.20;;;;;;;10.31;64.27;101117.50;5043148;27;20087;-60
2022/04/25 02:47:53;;;;;;;20.48;9.07;;;;;;;10.32;64.38;101117.53;5047653;28;20059;-59
2022/04/25 02:50:19;;;;;;;19.95;8.98;;;;;;;10.28;64.81;101114.84;5044803;27;20424;-60
2022/04/25 02:52:44;;;;;;;15.85;8.85;;;;;;;10.12;65.55;101114.53;5047393;27;20052;-60
2022/04/25 02:55:09;;;;;;;17.27;9.25;;;;;;;10.10;65.14;101116.25;5049479;27;20044;-60
2022/04/25 02:57:35;;;;;;;20.08;9.50;;;;;;;10.08;65.49;101114.44;5051149;27;20070;-60
2022/04/25 03:00:00;;;;;;;16.58;9.00;;;;;;;10.12;65.06;101113.66;5049369;28;20135;-61
2022/04/25 03:02:26;;;;;;;18.65;9.13;;;;;;;10.15;64.65;101116.31;5040587;28;20122;-60
2022/04/25 03:04:51;;;;;;;17.70;9.38;;;;;;;10.06;65.41;101113.56;5046006;27;20044;-60
2022/04/25 03:07:16;;;;;;;17.95;9.38;;;;;;;10.12;65.14;101122.34;5043580;27;20037;-59
2022/04/25 03:09:42;;;;;;;15.60;9.10;;;;;;;10.14;65.28;101118.03;5049673;28;20040;-60
2022/04/25 03:12:09;;;;;;;16.40;9.20;;;;;;;10.08;64.93;101111.84;5057131;27;20609;-60
2022/04/25 03:14:34;;;;;;;17.85;9.45;;;;;;;10.12;65.27;101111.91;5041188;28;20191;-59
2022/04/25 03:17:01;;;;;;;15.88;9.02;;;;;;;10.18;65.38;101110.34;5056326;28;20037;-61
2022/04/25 03:19:26;;;;;;;19.25;8.70;;;;;;;10.34;64.76;101114.97;5045518;27;20096;-60
2022/04/25 03:21:51;;;;;;;17.45;9.10;;;;;;;10.33;64.55;101115.81;5044824;28;20044;-60
2022/04/25 03:24:17;;;;;;;18.90;8.98;;;;;;;10.40;64.83;101112.47;5039794;28;20132;-63
2022/04/25 03:26:42;;;;;;;18.63;8.55;;;;;;;10.35;65.12;101107.19;5050174;28;20049;-60
2022/04/25 03:29:08;;;;;;;15.15;8.68;;;;;;;10.37;64.68;101115.88;5048707;27;20156;-61
2022/04/25 03:31:33;;;;;;;20.90;9.15;;;;;;;10.35;64.79;101114.13;5046699;28;20050;-60
2022/04/25 03:33:59;;;;;;;21.40;9.15;;;;;;;10.36;65.13;101110.66;5038874;27;20047;-59
2022/04/25 03:36:24;;;;;;;19.05;9.15;;;;;;;10.33;65.57;101115.81;5046016;27;20511;-60
2022/04/25 03:38:52;;;;;;;20.58;9.32;;;;;;;10.33;65.41;101108.00;5033734;27;20938;-61
2022/04/25 03:41:18;;;;;;;16.75;9.23;;;;;;;10.36;65.55;101108.06;5045211;28;20055;-60
2022/04/25 03:43:44;;;;;;;18.20;9.80;;;;;;;10.37;65.82;101113.28;5048402;27;20431;-59
2022/04/25 03:46:09;;;;;;;17.50;9.45;;;;;;;10.38;65.76;101107.22;5053645;27;20457;-60
2022/04/25 03:48:34;;;;;;;20.35;9.30;;;;;;;10.45;65.37;101111.69;5042214;28;20291;-60
2022/04/25 03:51:00;;;;;;;19.10;9.80;;;;;;;10.58;65.19;101116.28;5042537;27;20055;-59
2022/04/25 03:53:25;;;;;;;18.52;9.30;;;;;;;10.55;65.38;101116.22;5043191;28;20419;-59
2022/04/25 03:58:34;;;;;;;23.40;9.32;;;;;;;10.68;64.80;101116.41;5040694;28;20047;-59
2022/04/25 04:01:02;;;;;;;19.70;9.40;;;;;;;10.61;65.14;101112.84;5052902;27;20617;-60
2022/04/25 04:03:28;;;;;;;19.85;9.60;;;;;;;10.62;64.90;101113.72;5053848;28;20117;-60
2022/04/25 04:05:54;;;;;;;21.83;9.25;;;;;;;10.36;66.20;101111.56;5053420;27;20051;-60
2022/04/25 04:08:19;;;;;;;21.48;9.55;;;;;;;10.34;66.39;101114.97;5048101;27;20445;-60
2022/04/25 04:10:45;;;;;;;20.10;9.80;;;;;;;10.41;66.73;101119.44;5048261;28;20041;-60
2022/04/25 04:13:10;;;;;;;19.10;9.75;;;;;;;10.44;66.27;101115.16;5053089;28;20051;-61
2022/04/25 04:15:38;;;;;;;20.65;9.77;;;;;;;10.52;66.40;101120.50;5053678;28;20131;-59
2022/04/25 04:18:04;;;;;;;24.63;9.85;;;;;;;10.57;66.35;101127.56;5051925;28;20048;-59
2022/04/25 04:20:30;;;;;;;21.10;9.75;;;;;;;10.63;66.45;101123.28;5040101;28;20119;-59
2022/04/25 04:22:55;;;;;;;24.15;9.77;;;;;;;10.72;66.11;101126.06;5053460;27;20048;-60
2022/04/25 04:25:22;;;;;;;19.05;9.57;;;;;;;10.70;66.21;101130.38;5051199;28;20052;-59
2022/04/25 04:27:48;;;;;;;18.75;10.18;;;;;;;10.70;66.38;101128.63;5062667;27;20097;-59
2022/04/25 04:30:15;;;;;;;19.92;10.35;;;;;;;10.74;66.63;101127.81;5037599;27;20039;-59
2022/04/25 04:32:41;;;;;;;23.40;10.57;;;;;;;10.61;66.83;101132.84;5052719;27;20152;-59
2022/04/25 04:35:11;;;;;;;20.50;10.23;;;;;;;10.76;66.45;101127.88;5054393;28;21044;-61
2022/04/25 04:37:38;;;;;;;18.55;10.05;;;;;;;10.68;67.02;101138.16;5049562;28;20510;-60
2022/04/25 04:42:51;;;;;;;20.75;10.43;;;;;;;10.71;67.25;101139.94;5053381;27;20074;-59
2022/04/25 04:45:16;;;;;;;23.50;11.10;;;;;;;10.66;67.36;101137.28;5042545;28;20056;-60
2022/04/25 04:47:42;;;;;;;21.08;10.75;;;;;;;10.72;67.21;101142.59;5048041;27;20055;-60
2022/04/25 04:50:14;;;;;;;21.92;11.18;;;;;;;10.66;67.86;101152.91;5052657;27;20044;-60
2022/04/25 04:52:44;;;;;;;26.02;11.25;;;;;;;10.71;67.40;101151.25;5056259;27;20580;-59
2022/04/25 04:55:10;;;;;;;23.60;11.05;;;;;;;10.73;67.58;101146.09;5053170;28;20149;-60
2022/04/25 04:57:37;;;;;;;23.55;11.88;;;;;;;10.82;67.40;101154.03;5049831;28;20605;-61
2022/04/25 05:00:04;;;;;;;28.42;11.98;;;;;;;10.86;67.36;101151.50;5038339;27;20135;-59
2022/04/25 05:02:29;;;;;;;27.75;12.00;;;;;;;10.85;67.28;101160.22;5038961;27;20082;-60
2022/04/25 05:04:55;;;;;;;24.38;12.05;;;;;;;10.94;67.54;101149.03;5047410;28;20451;-61
2022/04/25 05:07:20;;;;;;;23.73;12.30;;;;;;;10.98;66.67;101159.53;5027827;27;20124;-60
2022/04/25 05:09:46;;;;;;;21.90;11.95;;;;;;;11.02;66.52;101160.47;5049417;28;20219;-59
2022/04/25 05:12:12;;;;;;;22.92;12.25;;;;;;;11.06;66.19;101170.09;5052802;27;20039;-60
2022/04/25 05:14:38;;;;;;;23.23;12.07;;;;;;;10.98;66.10;101171.69;5043460;27;20124;-60
2022/04/25 05:17:04;;;;;;;24.15;13.07;;;;;;;10.85;66.20;101178.47;5057733;28;20040;-59
2022/04/25 05:19:29;;;;;;;22.23;12.27;;;;;;;10.91;66.31;101175.97;5071360;27;20066;-60
2022/04/25 05:21:55;;;;;;;22.67;12.63;;;;;;;10.81;66.63;101175.75;5052528;27;20058;-61
2022/04/25 05:24:20;;;;;;;23.15;13.13;;;;;;;10.84;66.23;101179.31;5046630;27;20068;-61
2022/04/25 05:26:46;;;;;;;23.73;12.18;;;;;;;10.80;66.42;101182.69;5054730;27;20176;-60
2022/04/25 05:29:14;;;;;;;22.63;12.68;;;;;;;10.69;66.16;101181.63;5045186;28;20040;-61
2022/04/25 05:31:39;;;;;;;24.98;12.38;;;;;;;10.66;66.38;101180.72;5048460;28;20054;-60
2022/04/25 05:34:04;;;;;;;19.50;12.48;;;;;;;10.71;66.54;101177.34;5054141;28;20048;-59
2022/04/25 05:36:30;;;;;;;23.38;12.75;;;;;;;10.64;66.47;101180.69;5043334;27;20067;-60
2022/04/25 05:38:55;;;;;;;23.25;13.32;;;;;;;10.56;67.17;101180.53;5056326;27;20550;-59
2022/04/25 05:41:21;;;;;;;21.75;12.55;;;;;;;10.30;67.60;101192.22;5042512;28;20239;-60
2022/04/25 05:43:46;;;;;;;24.10;12.45;;;;;;;10.56;67.35;101195.28;5054638;28;20056;-60
2022/04/25 05:46:12;;;;;;;24.35;12.40;;;;;;;10.38;67.55;101195.84;5022267;28;20147;-60
2022/04/25 05:54:06;;;;;;;22.92;12.77;;;;;;;10.70;66.98;101200.78;5043502;28;20306;-59
2022/04/25 05:56:32;;;;;;;28.13;13.57;;;;;;;10.70;66.86;101209.47;5046131;27;20637;-60
2022/04/25 05:58:57;;;;;;;25.33;13.50;;;;;;;10.68;67.25;101211.16;5050757;27;20751;-61
2022/04/25 06:01:22;;;;;;;25.85;13.55;;;;;;;10.71;67.67;101215.56;5054620;28;20347;-60
2022/04/25 06:03:48;;;;;;;24.83;13.52;;;;;;;10.70;67.25;101219.91;5039245;28;20032;-60
2022/04/25 06:06:13;;;;;;;24.85;13.18;;;;;;;10.75;67.39;101222.59;5040314;28;20040;-59
2022/04/25 06:08:38;;;;;;;26.88;13.68;;;;;;;10.80;67.42;101211.38;5046292;27;20075;-60
2022/04/25 06:11:04;;;;;;;26.25;13.60;;;;;;;10.83;67.57;101214.06;5046812;28;20036;-60
2022/04/25 06:13:29;;;;;;;23.65;12.88;;;;;;;11.02;67.19;101223.09;5050303;28;20398;-60
2022/04/25 06:15:55;;;;;;;26.30;12.77;;;;;;;10.92;67.21;101229.84;5059197;28;20173;-59
2022/04/25 06:18:20;;;;;;;22.40;13.77;;;;;;;10.77;68.38;101229.59;5046472;27;20095;-60
2022/04/25 06:20:46;;;;;;;24.05;13.50;;;;;;;10.87;67.95;101223.69;5045732;27;20554;-59
2022/04/25 06:23:11;;;;;;;22.73;13.63;;;;;;;10.98;67.88;101231.69;5049710;28;20036;-60
2022/04/25 06:25:37;;;;;;;22.70;13.70;;;;;;;10.89;68.23;101228.94;5049921;28;20045;-60
2022/04/25 06:28:03;;;;;;;24.90;13.73;;;;;;;10.97;68.14;101228.25;5048957;28;20078;-60
2022/04/25 06:30:29;;;;;;;27.80;14.00;;;;;;;10.94;68.44;101227.28;5035091;27;20045;-60
2022/04/25 06:32:59;;;;;;;24.77;13.68;;;;;;;10.91;68.83;101233.34;5054829;28;20056;-60
2022/04/25 06:35:24;;;;;;;21.70;13.05;;;;;;;10.81;68.90;101233.13;5044581;27;20122;-59
2022/04/25 06:37:50;;;;;;;22.67;13.43;;;;;;;10.83;69.42;101231.44;5051044;27;20139;-60
2022/04/25 06:40:17;;;;;;;25.50;12.63;;;;;;;10.87;69.51;101236.72;5042544;28;20044;-60
2022/04/25 06:42:43;;;;;;;24.08;13.13;;;;;;;10.92;69.88;101235.06;5047917;28;20137;-60
2022/04/25 06:45:08;;;;;;;21.73;12.70;;;;;;;10.77;70.40;101242.66;5057194;27;20581;-60
2022/04/25 06:47:34;;;;;;;23.52;13.25;;;;;;;10.79;70.67;101240.06;5038328;27;20121;-59
2022/04/25 06:49:59;;;;;;;22.77;13.85;;;;;;;10.78;71.14;101244.41;5046051;27;20032;-60
2022/04/25 06:52:24;;;;;;;25.10;13.65;;;;;;;10.93;70.62;101246.38;5043464;27;20052;-59
2022/04/25 06:54:50;;;;;;;23.27;14.35;;;;;;;11.07;70.59;101249.25;5044502;27;20653;-59
2022/04/25 06:57:16;;;;;;;25.83;14.32;;;;;;;11.10;70.63;101255.38;5040135;27;20054;-61
2022/04/25 06:59:43;;;;;;;26.25;15.57;;;;;;;11.09;70.83;101258.88;5050818;28;20036;-60
2022/04/25 07:02:10;;;;;;;25.65;15.50;;;;;;;11.05;71.19;101253.56;5045127;28;20246;-59
2022/04/25 07:04:35;;;;;;;27.88;15.15;;;;;;;10.95;71.68;101257.75;5044700;28;20137;-60
2022/04/25 07:07:01;;;;;;;27.45;15.55;;;;;;;10.88;72.17;101264.56;5044255;27;20441;-61
2022/04/25 07:09:26;;;;;;;29.45;16.48;;;;;;;10.73;72.75;101261.69;5053122;27;20039;-60
2022/04/25 07:11:52;;;;;;;30.08;15.88;;;;;;;10.56;73.89;101265.69;5045565;28;20573;-60
2022/04/25 07:14:19;;;;;;;27.98;16.30;;;;;;;10.57;73.77;101272.66;5042114;28;20067;-60
2022/04/25 07:16:54;;;;;;;25.95;15.88;;;;;;;10.73;73.68;101279.97;5054325;28;20541;-59
2022/04/25 07:19:20;;;;;;;23.25;14.07;;;;;;;10.46;73.25;101279.41;5053562;27;20044;-59
2022/04/25 07:29:59;;;;;;;24.73;13.93;;;;;;;10.55;73.07;101279.59;5053025;28;20446;-59
2022/04/25 07:32:25;;;;;;;26.13;13.93;;;;;;;10.57;73.34;101278.75;5045063;27;20032;-60
2022/04/25 07:34:50;;;;;;;25.25;14.50;;;;;;;10.62;73.20;101284.06;5044891;28;20488;-60
2022/04/25 07:37:17;;;;;;;27.20;14.90;;;;;;;10.63;73.36;101284.94;5048648;28;20052;-59
2022/04/25 07:39:43;;;;;;;29.30;15.73;;;;;;;10.66;73.96;101282.41;5052458;28;20032;-60
2022/04/25 07:42:08;;;;;;;27.63;17.08;;;;;;;10.68;74.32;101291.13;5051867;27;20138;-59
2022/04/25 07:44:34;;;;;;;27.75;16.52;;;;;;;10.60;74.22;101285.78;5042186;27;20348;-60
2022/04/25 07:47:00;;;;;;;31.58;17.58;;;;;;;10.66;73.69;101282.41;5057880;27;20129;-60
2022/04/25 07:49:26;;;;;;;31.10;17.77;;;;;;;10.56;74.28;101286.53;5039480;28;20687;-58
2022/04/25 07:51:52;;;;;;;32.53;17.42;;;;;;;10.64;73.87;101284.09;5051112;28;20484;-58
2022/04/25 07:54:19;;;;;;;33.53;18.80;;;;;;;10.67;73.81;101294.59;5050305;27;20483;-61
2022/04/25 07:56:45;;;;;;;31.50;18.55;;;;;;;10.74;73.53;101292.13;5051777;28;20045;-58
2022/04/25 07:59:12;;;;;;;29.75;18.20;;;;;;;10.72;73.61;101296.44;5051429;27;20566;-59
2022/04/25 08:01:37;;;;;;;31.08;18.15;;;;;;;10.62;73.39;101299.69;5031192;28;20057;-59
2022/04/25 08:04:03;;;;;;;33.13;18.15;;;;;;;10.73;73.23;101302.53;5050064;28;20119;-60
2022/04/25 08:06:28;;;;;;;31.13;18.48;;;;;;;10.70;72.86;101305.06;5044982;27;20067;-59
2022/04/25 08:08:54;;;;;;;31.35;18.45;;;;;;;10.78;73.07;101304.38;5047786;27;20147;-59
2022/04/25 08:11:21;;;;;;;31.75;17.70;;;;;;;10.75;73.13;101299.09;5048107;27;20048;-60
2022/04/25 08:19:15;;;;;;;31.00;18.07;;;;;;;10.81;72.92;101314.88;5050271;28;20048;-59
2022/04/25 08:21:42;;;;;;;29.30;17.85;;;;;;;10.93;72.63;101315.09;5049502;28;20035;-59
2022/04/25 08:24:07;;;;;;;33.15;18.60;;;;;;;10.97;73.06;101311.72;5048769;28;20229;-60
2022/04/25 08:26:32;;;;;;;31.98;18.23;;;;;;;11.06;72.96;101317.94;5051836;27;20484;-60
2022/04/25 08:28:59;;;;;;;32.75;18.05;;;;;;;11.15;72.60;101320.72;5049323;28;20036;-59
2022/04/25 08:31:25;;;;;;;32.03;17.60;;;;;;;11.06;72.38;101324.03;5058776;28;20547;-60
2022/04/25 08:33:51;;;;;;;29.20;17.92;;;;;;;11.04;72.31;101319.66;5052350;28;20052;-60
2022/04/25 08:36:18;;;;;;;29.90;18.10;;;;;;;10.93;72.26;101325.53;5050683;27;20510;-60
2022/04/25 08:38:44;;;;;;;29.60;17.27;;;;;;;11.03;72.32;101329.22;5041878;27;20102;-60
2022/04/25 08:41:15;;;;;;;28.92;17.77;;;;;;;11.10;72.38;101328.44;5058852;28;20047;-60
2022/04/25 08:43:41;;;;;;;30.20;17.83;;;;;;;11.21;72.17;101323.44;5047337;28;20477;-60
2022/04/25 08:46:11;;;;;;;29.67;17.60;;;;;;;11.14;72.13;101322.47;5050559;28;20035;-60
2022/04/25 08:48:41;;;;;;;32.45;18.38;;;;;;;11.21;72.48;101329.56;5050201;28;20892;-59
2022/04/25 08:51:08;;;;;;;28.40;17.92;;;;;;;11.39;72.03;101334.22;5041236;27;20044;-60
2022/04/25 08:53:35;;;;;;;30.35;18.38;;;;;;;11.47;72.19;101326.50;5042655;28;20693;-60
2022/04/25 08:56:02;;;;;;;30.40;18.02;;;;;;;11.63;72.05;101328.53;5047611;28;20032;-60
2022/04/25 08:58:31;;;;;;;29.38;17.58;;;;;;;11.78;71.88;101327.06;5041324;27;20436;-60
2022/04/25 09:00:58;;;;;;;27.75;17.23;;;;;;;12.01;71.55;101326.53;5059419;27;20059;-59
2022/04/25 09:03:24;;;;;;;30.98;17.50;;;;;;;12.10;71.02;101330.16;5062809;27;20131;-60
2022/04/25 09:05:50;;;;;;;26.25;16.98;;;;;;;12.06;70.27;101338.81;5048856;28;20109;-61
2022/04/25 09:08:16;;;;;;;28.55;17.05;;;;;;;12.20;70.48;101337.25;5039402;28;20122;-63
2022/04/25 09:10:43;;;;;;;25.45;16.33;;;;;;;12.37;69.84;101334.00;5043608;28;20515;-60
2022/04/25 09:13:10;;;;;;;23.83;15.95;;;;;;;12.38;69.19;101336.63;5058660;28;20062;-61
2022/04/25 09:15:39;;;;;;;27.25;16.40;;;;;;;12.51;69.09;101338.53;5055335;28;20441;-60
2022/04/25 09:18:04;;;;;;;24.83;16.50;;;;;;;12.60;68.15;101332.56;5046610;27;20403;-61
2022/04/25 09:20:30;;;;;;;26.23;15.50;;;;;;;12.65;67.73;101343.97;5046415;27;20041;-60
2022/04/25 09:22:56;;;;;;;24.45;15.63;;;;;;;12.46;67.50;101348.06;5049212;27;20584;-60
2022/04/25 09:25:23;;;;;;;25.40;16.00;;;;;;;12.55;68.11;101345.59;5049959;28;20674;-61
2022/04/25 09:28:14;;;;;;;25.23;16.42;;;;;;;12.33;68.65;101347.88;5048713;27;20393;-60
2022/04/25 09:30:54;;;;;;;28.95;15.95;;;;;;;12.39;68.34;101346.22;5042234;28;20044;-59
2022/04/25 09:33:23;;;;;;;24.65;15.25;;;;;;;12.43;67.66;101344.56;5043203;28;20049;-60
2022/04/25 09:35:54;;;;;;;23.17;15.18;;;;;;;12.26;67.70;101343.44;5040137;28;20112;-60
2022/04/25 09:38:40;;;;;;;24.73;15.27;;;;;;;12.24;68.08;101342.53;5044288;28;20419;-60
2022/04/25 09:41:10;;;;;;;23.98;15.85;;;;;;;12.16;68.36;101363.34;5048012;28;20032;-61
2022/04/25 09:43:41;;;;;;;26.25;15.80;;;;;;;12.07;68.41;101360.59;5046201;27;20557;-62
2022/04/25 09:46:12;;;;;;;25.27;14.93;;;;;;;12.06;68.54;101370.19;5044050;28;20406;-60
2022/04/25 09:48:41;;;;;;;25.63;15.10;;;;;;;11.87;69.13;101368.13;5035808;28;20072;-59
2022/04/25 09:51:10;;;;;;;25.42;15.52;;;;;;;11.97;69.65;101380.47;5043706;27;20109;-60
2022/04/25 09:53:41;;;;;;;21.70;14.30;;;;;;;11.62;68.88;101369.41;5054543;28;20762;-60
2022/04/25 09:56:14;;;;;;;21.52;13.82;;;;;;;11.75;68.75;101378.38;5047015;28;20101;-60
2022/04/25 09:58:41;;;;;;;23.42;14.38;;;;;;;11.88;68.14;101379.47;5046801;27;20036;-60
2022/04/25 10:01:26;;;;;;;25.05;14.77;;;;;;;11.68;68.16;101384.31;5054594;28;20070;-61
2022/04/25 10:03:51;;;;;;;27.63;15.95;;;;;;;11.47;69.30;101384.81;5042066;28;20039;-59
2022/04/25 10:06:17;;;;;;;25.45;16.15;;;;;;;11.61;69.56;101380.72;5042184;28;20043;-61
2022/04/25 10:08:44;;;;;;;25.48;15.55;;;;;;;11.73;70.01;101388.78;5047969;28;20536;-59
2022/04/25 10:11:12;;;;;;;24.65;16.45;;;;;;;11.82;69.79;101387.19;5040718;28;20157;-60
2022/04/25 10:13:38;;;;;;;26.75;16.30;;;;;;;11.75;68.87;101381.88;5041094;27;20047;-59
2022/04/25 10:16:03;;;;;;;28.63;17.05;;;;;;;11.75;68.53;101388.81;5047270;27;20312;-60
2022/04/25 10:18:32;;;;;;;27.42;16.92;;;;;;;12.04;67.87;101386.69;5038220;27;20276;-60
2022/04/25 10:20:59;;;;;;;25.75;16.58;;;;;;;12.37;68.33;101384.56;5049202;28;20569;-60
2022/04/25 10:23:25;;;;;;;25.98;16.05;;;;;;;12.46;67.30;101384.69;5046942;27;20048;-60
2022/04/25 10:26:00;;;;;;;22.05;14.50;;;;;;;12.39;65.37;101385.47;5048294;28;20654;-61
2022/04/25 10:28:34;;;;;;;22.85;14.25;;;;;;;12.33;66.18;101389.72;5039833;27;20721;-60
2022/04/25 10:31:07;;;;;;;23.80;15.40;;;;;;;12.53;65.98;101388.28;5049556;27;20066;-60
2022/04/25 10:33:53;;;;;;;23.90;14.98;;;;;;;12.63;66.11;101389.25;5050701;27;20254;-60
2022/04/25 10:36:37;;;;;;;23.40;14.73;;;;;;;12.18;66.29;101393.00;5047859;27;20352;-60
2022/04/25 10:39:22;;;;;;;21.45;14.20;;;;;;;12.24;65.48;101400.06;5056983;27;20123;-60
2022/04/25 10:44:37;;;;;;;22.88;14.68;;;;;;;12.33;66.10;101400.19;5045525;27;20148;-61
2022/04/25 10:47:03;;;;;;;25.20;14.43;;;;;;;12.40;66.29;101400.28;5031952;27;20041;-60
2022/04/25 10:49:33;;;;;;;25.27;15.02;;;;;;;12.51;66.22;101403.03;5045869;27;20102;-60
2022/04/25 10:52:00;;;;;;;24.30;14.73;;;;;;;12.36;64.98;101405.47;5058064;28;20342;-60
2022/04/25 10:54:27;;;;;;;24.17;14.95;;;;;;;12.51;65.27;101410.91;5043004;27;20044;-61
2022/04/25 10:57:08;;;;;;;27.13;14.57;;;;;;;12.39;64.69;101415.94;5043925;27;20086;-59
2022/04/25 10:59:34;;;;;;;26.15;14.10;;;;;;;12.39;64.25;101411.59;5037472;28;20810;-60
2022/04/25 11:02:00;;;;;;;25.02;14.57;;;;;;;12.52;64.62;101418.78;5047720;28;20097;-60
2022/04/25 11:04:26;;;;;;;22.45;15.07;;;;;;;12.49;64.62;101421.34;5047314;28;20507;-59
2022/04/25 11:07:24;;;;;;;22.73;14.15;;;;;;;12.54;65.00;101422.31;5048618;28;20052;-60
2022/04/25 11:09:50;;;;;;;22.60;14.02;;;;;;;12.35;64.62;101422.88;5052606;27;20052;-60
2022/04/25 11:12:15;;;;;;;23.45;13.38;;;;;;;12.27;64.00;101441.91;5043993;28;20041;-59
2022/04/25 11:15:02;;;;;;;21.67;14.10;;;;;;;12.27;65.08;101437.56;5046274;27;20055;-62
2022/04/25 11:17:28;;;;;;;19.50;12.95;;;;;;;12.35;64.58;101440.31;5054813;27;20045;-58
2022/04/25 11:19:54;;;;;;;23.88;13.50;;;;;;;12.29;63.94;101445.44;5051138;28;20577;-60
2022/04/25 11:22:44;;;;;;;21.13;14.20;;;;;;;12.11;63.91;101451.25;5044064;28;20514;-62
2022/04/25 11:25:27;;;;;;;21.67;14.05;;;;;;;12.12;64.74;101442.56;5058455;27;20048;-60
2022/04/25 11:28:10;;;;;;;24.50;15.02;;;;;;;11.96;65.87;101446.66;5055446;28;20052;-60
2022/04/25 11:30:36;;;;;;;25.40;14.93;;;;;;;11.89;65.23;101446.53;5053179;27;20047;-60
2022/04/25 11:33:03;;;;;;;23.85;14.60;;;;;;;11.84;66.42;101441.22;5060408;27;20069;-60
2022/04/25 11:35:29;;;;;;;24.05;15.63;;;;;;;11.82;66.71;101444.66;5053740;28;20611;-60
2022/04/25 11:37:58;;;;;;;27.25;15.70;;;;;;;11.70;67.48;101440.09;5048556;27;20054;-61
2022/04/25 11:40:24;;;;;;;25.30;15.23;;;;;;;11.67;67.75;101456.56;5045397;28;20500;-61
2022/04/25 11:42:50;;;;;;;25.67;15.82;;;;;;;11.79;67.51;101443.75;5058894;28;20495;-62
2022/04/25 11:45:15;;;;;;;28.60;15.52;;;;;;;11.70;67.54;101445.31;5048423;28;20051;-60